Time;durP1;ratioP1;P1;durP2;ratioP2;P2;SDS_P1;SDS_P2;PMS_P1;PMS_P2;Temp;Humidity;BMP_temperature;BMP_pressure;BME280_temperature;BME280_humidity;BME280_pressure;Samples;Min_cycle;Max_cycle;Signal;HPM_P1;HPM_P2
2022/09/08 00:01:20;;;;;;;7.10;3.50;;;18.30;99.90;;;;;;5068625;28;20214;-79
2022/09/08 00:03:49;;;;;;;7.13;3.20;;;18.40;99.90;;;;;;5071815;28;20665;-79
2022/09/08 00:06:19;;;;;;;7.17;3.43;;;18.40;99.90;;;;;;5070996;28;20214;-79
2022/09/08 00:08:48;;;;;;;5.43;3.00;;;18.40;99.90;;;;;;5059260;28;20196;-78
2022/09/08 00:11:18;;;;;;;7.77;3.30;;;18.40;99.90;;;;;;5070761;28;20204;-80
2022/09/08 00:13:47;;;;;;;7.73;3.10;;;18.40;99.90;;;;;;5067904;28;20299;-78
2022/09/08 00:16:18;;;;;;;4.60;2.50;;;18.40;99.90;;;;;;5071964;28;20258;-79
2022/09/08 00:18:50;;;;;;;6.77;2.23;;;18.30;99.90;;;;;;5069388;28;20224;-79
2022/09/08 00:21:18;;;;;;;6.27;2.20;;;18.20;99.90;;;;;;5072121;28;20238;-79
2022/09/08 00:23:46;;;;;;;4.67;2.23;;;18.10;99.90;;;;;;5068190;28;20541;-82
2022/09/08 00:26:14;;;;;;;2.97;2.00;;;18.00;99.90;;;;;;5068382;28;20231;-78
2022/09/08 00:28:42;;;;;;;3.20;2.07;;;17.90;99.90;;;;;;5069985;28;20209;-79
2022/09/08 00:31:11;;;;;;;4.63;2.00;;;17.80;99.90;;;;;;5071906;28;20222;-77
2022/09/08 00:33:41;;;;;;;6.77;2.20;;;17.70;99.90;;;;;;5070869;28;20235;-78
2022/09/08 00:36:14;;;;;;;3.17;1.77;;;17.60;99.90;;;;;;5073232;28;20283;-77
2022/09/08 00:38:42;;;;;;;4.23;2.03;;;17.60;99.90;;;;;;5070211;28;20237;-79
2022/09/08 00:41:12;;;;;;;2.80;2.00;;;17.60;99.90;;;;;;5072611;28;20731;-78
2022/09/08 00:43:48;;;;;;;2.93;1.73;;;17.50;99.90;;;;;;5067555;28;20195;-78
2022/09/08 00:46:22;;;;;;;8.70;2.20;;;17.40;99.90;;;;;;5067996;28;20199;-80
2022/09/08 00:48:58;;;;;;;4.40;2.13;;;17.40;99.90;;;;;;5067372;28;20245;-78
2022/09/08 00:51:27;;;;;;;4.53;2.00;;;17.30;99.90;;;;;;5067590;28;20665;-78
2022/09/08 00:53:58;;;;;;;2.83;2.10;;;17.30;99.90;;;;;;5070199;28;20245;-77
2022/09/08 00:56:28;;;;;;;3.27;1.80;;;17.20;99.90;;;;;;5067680;28;20748;-80
2022/09/08 00:58:57;;;;;;;4.87;2.03;;;17.20;99.90;;;;;;5061132;28;20227;-79
2022/09/08 01:01:25;;;;;;;4.93;2.03;;;17.20;99.90;;;;;;5070128;28;20863;-77
2022/09/08 01:03:55;;;;;;;4.73;2.03;;;17.20;99.90;;;;;;5070578;28;20315;-80
2022/09/08 01:15:06;;;;;;;5.40;2.00;;;17.20;99.90;;;;;;5059143;28;20215;-80
2022/09/08 01:17:34;;;;;;;4.30;2.03;;;17.10;99.90;;;;;;5069086;28;20781;-81
2022/09/08 01:20:07;;;;;;;6.77;2.00;;;17.10;99.90;;;;;;5070613;28;20204;-80
2022/09/08 01:22:53;;;;;;;3.93;2.40;;;17.10;99.90;;;;;;5061925;28;20207;-81
2022/09/08 01:25:32;;;;;;;3.00;2.10;;;17.10;99.90;;;;;;5068036;28;20221;-82
2022/09/08 01:28:09;;;;;;;3.40;2.10;;;17.10;99.90;;;;;;5072078;28;20291;-82
2022/09/08 01:30:37;;;;;;;3.63;2.40;;;17.10;99.90;;;;;;5068711;28;20208;-81
2022/09/08 01:33:08;;;;;;;3.70;2.30;;;17.00;99.90;;;;;;5073171;28;20206;-80
2022/09/08 01:35:39;;;;;;;3.00;2.27;;;17.10;99.90;;;;;;5066485;28;20203;-79
2022/09/08 01:38:08;;;;;;;3.57;2.47;;;17.10;99.90;;;;;;5069698;28;20212;-79
2022/09/08 01:40:38;;;;;;;5.10;2.70;;;17.10;99.90;;;;;;5070500;28;20630;-82
2022/09/08 01:43:08;;;;;;;5.57;2.43;;;17.00;99.90;;;;;;5074788;28;20209;-81
2022/09/08 01:45:37;;;;;;;4.80;2.80;;;17.10;99.90;;;;;;5068476;28;20215;-78
2022/09/08 01:48:06;;;;;;;4.63;2.80;;;17.10;99.90;;;;;;5070433;28;20297;-81
2022/09/08 01:50:34;;;;;;;3.60;2.63;;;17.10;99.90;;;;;;5069620;28;20212;-81
2022/09/08 01:53:03;;;;;;;4.07;2.70;;;17.10;99.90;;;;;;5069803;28;20230;-79
2022/09/08 01:55:31;;;;;;;4.80;2.60;;;17.00;99.90;;;;;;5069055;28;20204;-80
2022/09/08 01:57:59;;;;;;;4.00;2.70;;;17.00;99.90;;;;;;5064299;28;20676;-78
2022/09/08 02:00:28;;;;;;;5.67;2.80;;;17.00;99.90;;;;;;5069372;28;20208;-79
2022/09/08 02:02:57;;;;;;;7.60;3.10;;;17.00;99.90;;;;;;5069605;28;20552;-81
2022/09/08 02:05:25;;;;;;;4.40;2.90;;;17.00;99.90;;;;;;5065739;28;20211;-80
2022/09/08 02:07:53;;;;;;;5.63;2.70;;;17.00;99.90;;;;;;5060975;28;20211;-81
2022/09/08 02:10:22;;;;;;;4.33;3.10;;;17.00;99.90;;;;;;5063211;28;20349;-83
2022/09/08 02:12:52;;;;;;;5.77;3.13;;;16.90;99.90;;;;;;5074889;28;20203;-81
2022/09/08 02:15:20;;;;;;;6.73;3.67;;;17.00;99.90;;;;;;5085296;28;20271;-83
2022/09/08 02:17:49;;;;;;;5.07;3.90;;;17.00;99.90;;;;;;5088136;28;20188;-82
2022/09/08 02:20:18;;;;;;;5.50;3.80;;;16.90;99.90;;;;;;5081022;28;20208;-82
2022/09/08 02:22:46;;;;;;;6.23;4.10;;;16.90;99.90;;;;;;5095051;28;20235;-82
2022/09/08 02:25:14;;;;;;;6.77;3.90;;;16.90;99.90;;;;;;5090103;28;20207;-82
2022/09/08 02:27:42;;;;;;;5.57;4.00;;;16.90;99.90;;;;;;5088497;28;20235;-84
2022/09/08 02:30:12;;;;;;;6.63;4.73;;;16.90;99.90;;;;;;5087389;28;20224;-83
2022/09/08 02:32:40;;;;;;;7.30;4.30;;;16.80;99.90;;;;;;5085998;28;20263;-83
2022/09/08 02:35:09;;;;;;;8.23;4.67;;;16.80;99.90;;;;;;5079062;28;20274;-84
2022/09/08 02:37:39;;;;;;;6.87;4.40;;;16.80;99.90;;;;;;5086398;28;20227;-82
2022/09/08 02:40:08;;;;;;;5.73;4.03;;;16.80;99.90;;;;;;5083073;28;20258;-83
2022/09/08 02:42:36;;;;;;;7.97;4.47;;;16.80;99.90;;;;;;5063998;28;20296;-80
2022/09/08 02:45:08;;;;;;;5.80;4.20;;;16.80;99.90;;;;;;5079679;28;20231;-82
2022/09/08 02:47:37;;;;;;;8.47;4.77;;;16.70;99.90;;;;;;5068254;28;20657;-80
2022/09/08 02:50:06;;;;;;;7.23;4.37;;;16.70;99.90;;;;;;5066675;28;20314;-81
2022/09/08 02:52:35;;;;;;;6.80;4.50;;;16.70;99.90;;;;;;5073438;28;20287;-82
2022/09/08 02:55:04;;;;;;;5.40;4.30;;;16.60;99.90;;;;;;5082958;28;20669;-83
2022/09/08 02:57:32;;;;;;;6.83;3.50;;;16.60;99.90;;;;;;5082357;28;20195;-82
2022/09/08 03:00:00;;;;;;;4.23;3.23;;;16.50;99.90;;;;;;5078461;28;20231;-82
2022/09/08 03:02:29;;;;;;;6.70;2.70;;;16.40;99.90;;;;;;5079531;28;20299;-83
2022/09/08 03:04:57;;;;;;;3.63;2.80;;;16.30;99.90;;;;;;5073872;28;20215;-81
2022/09/08 03:07:26;;;;;;;5.50;2.57;;;16.30;99.90;;;;;;5077394;28;20199;-81
2022/09/08 03:09:55;;;;;;;4.73;2.70;;;16.20;99.90;;;;;;5070530;28;20239;-83
2022/09/08 03:12:26;;;;;;;4.03;2.30;;;16.20;99.90;;;;;;5085186;28;20204;-81
2022/09/08 03:14:55;;;;;;;4.90;2.40;;;16.20;99.90;;;;;;5076582;28;20246;-81
2022/09/08 03:17:23;;;;;;;4.10;2.40;;;16.20;99.90;;;;;;5074202;28;20563;-83
2022/09/08 03:19:53;;;;;;;4.13;2.00;;;16.20;99.90;;;;;;5075910;28;20258;-85
2022/09/08 03:22:21;;;;;;;2.67;1.90;;;16.20;99.90;;;;;;5076101;28;20196;-83
2022/09/08 03:24:49;;;;;;;3.80;1.90;;;16.10;99.90;;;;;;5069432;28;20218;-82
2022/09/08 03:27:19;;;;;;;2.43;1.67;;;16.10;99.90;;;;;;5076286;28;20215;-82
2022/09/08 03:29:47;;;;;;;2.03;1.70;;;16.10;99.90;;;;;;5071908;28;20230;-81
2022/09/08 03:32:15;;;;;;;2.57;1.80;;;16.10;99.90;;;;;;5070620;28;20234;-81
2022/09/08 03:34:44;;;;;;;4.13;1.80;;;16.10;99.90;;;;;;5068902;28;20230;-83
2022/09/08 03:37:12;;;;;;;3.43;1.70;;;16.10;99.90;;;;;;5069722;28;20218;-81
2022/09/08 03:39:40;;;;;;;3.97;1.70;;;16.10;99.90;;;;;;5075569;28;20227;-80
2022/09/08 03:42:09;;;;;;;3.43;2.03;;;16.00;99.90;;;;;;5077860;28;20665;-83
2022/09/08 03:44:38;;;;;;;2.17;1.90;;;16.00;99.90;;;;;;5070253;28;20299;-82
2022/09/08 03:47:06;;;;;;;1.80;1.70;;;16.00;99.90;;;;;;5069688;28;20290;-81
2022/09/08 03:49:34;;;;;;;2.27;1.57;;;16.00;99.90;;;;;;5072210;28;20220;-81
2022/09/08 03:52:03;;;;;;;4.67;1.80;;;15.90;99.90;;;;;;5076680;28;20208;-82
2022/09/08 03:54:50;;;;;;;5.30;1.73;;;15.90;99.90;;;;;;5075228;28;20621;-80
2022/09/08 03:57:22;;;;;;;2.03;1.63;;;15.90;99.90;;;;;;5078454;28;20219;-82
2022/09/08 03:59:53;;;;;;;3.73;1.87;;;15.90;99.90;;;;;;5072834;28;20215;-81
2022/09/08 04:02:23;;;;;;;3.67;1.80;;;15.90;99.90;;;;;;5073290;28;20211;-81
2022/09/08 04:04:53;;;;;;;3.77;1.90;;;15.80;99.90;;;;;;5071073;28;20624;-81
2022/09/08 04:07:25;;;;;;;3.90;2.20;;;15.80;99.90;;;;;;5071673;28;20211;-80
2022/09/08 04:09:54;;;;;;;2.70;1.80;;;15.80;99.90;;;;;;5074776;28;20287;-81
2022/09/08 04:12:22;;;;;;;3.60;1.83;;;15.80;99.90;;;;;;5081408;28;20294;-82
2022/09/08 04:14:52;;;;;;;5.43;2.07;;;15.80;99.90;;;;;;5073167;28;20239;-82
2022/09/08 04:17:22;;;;;;;4.77;2.00;;;15.80;99.90;;;;;;5072161;28;20366;-83
2022/09/08 04:19:51;;;;;;;2.60;1.90;;;15.80;99.90;;;;;;5068827;28;20236;-81
2022/09/08 04:22:23;;;;;;;2.97;1.90;;;15.80;99.90;;;;;;5068433;28;20211;-81
2022/09/08 04:24:52;;;;;;;3.57;2.00;;;15.80;99.90;;;;;;5066193;28;20622;-79
2022/09/08 04:27:23;;;;;;;5.17;2.10;;;15.80;99.90;;;;;;5070281;28;20584;-81
2022/09/08 04:29:53;;;;;;;4.67;2.07;;;15.90;99.90;;;;;;5071034;28;20570;-81
2022/09/08 04:32:21;;;;;;;4.33;1.80;;;15.90;99.90;;;;;;5074423;28;20208;-81
2022/09/08 04:34:50;;;;;;;4.13;2.20;;;15.90;99.90;;;;;;5069165;28;20238;-82
2022/09/08 04:37:19;;;;;;;3.50;2.10;;;15.90;99.90;;;;;;5074958;28;20207;-82
2022/09/08 04:39:49;;;;;;;3.87;2.20;;;15.90;99.90;;;;;;5073773;28;20238;-81
2022/09/08 04:42:17;;;;;;;4.63;2.20;;;15.90;99.90;;;;;;5071397;28;20214;-80
2022/09/08 04:44:45;;;;;;;4.43;2.20;;;15.90;99.90;;;;;;5068301;28;20204;-82
2022/09/08 04:47:15;;;;;;;3.83;2.43;;;16.00;99.90;;;;;;5070386;28;20211;-82
2022/09/08 04:49:43;;;;;;;2.93;2.33;;;16.00;99.90;;;;;;5061815;28;20220;-81
2022/09/08 04:52:11;;;;;;;3.67;2.30;;;15.90;99.90;;;;;;5069076;28;20211;-82
2022/09/08 04:54:40;;;;;;;4.50;2.47;;;15.90;99.90;;;;;;5069923;28;20211;-82
2022/09/08 04:57:08;;;;;;;2.73;2.20;;;16.00;99.90;;;;;;5073721;28;20212;-83
2022/09/08 04:59:36;;;;;;;5.63;2.80;;;16.00;99.90;;;;;;5075662;28;20275;-82
2022/09/08 05:02:05;;;;;;;3.93;2.30;;;16.00;99.90;;;;;;5077917;28;20212;-81
2022/09/08 05:04:34;;;;;;;6.37;2.37;;;15.90;99.90;;;;;;5075737;28;20234;-81
2022/09/08 05:07:02;;;;;;;3.97;2.40;;;16.00;99.90;;;;;;5071085;28;20246;-82
2022/09/08 05:09:30;;;;;;;3.50;2.50;;;15.90;99.90;;;;;;5076486;28;20207;-83
2022/09/08 05:11:58;;;;;;;2.87;2.37;;;16.00;99.90;;;;;;5077287;28;20221;-83
2022/09/08 05:14:27;;;;;;;5.73;2.43;;;15.90;99.90;;;;;;5074381;28;20215;-82
2022/09/08 05:16:55;;;;;;;3.60;2.20;;;16.00;99.90;;;;;;5076719;28;20222;-82
2022/09/08 05:19:22;;;;;;;2.60;2.00;;;16.00;99.90;;;;;;5070875;28;20216;-81
2022/09/08 05:21:52;;;;;;;3.87;2.13;;;16.00;99.90;;;;;;5070730;28;20223;-81
2022/09/08 05:24:20;;;;;;;2.30;2.07;;;16.00;99.90;;;;;;5076848;28;20212;-82
2022/09/08 05:26:49;;;;;;;4.10;2.17;;;16.00;99.90;;;;;;5077390;28;20207;-83
2022/09/08 05:29:17;;;;;;;3.53;2.00;;;16.10;99.90;;;;;;5084664;28;20207;-83
2022/09/08 05:31:45;;;;;;;3.23;2.17;;;16.00;99.90;;;;;;5080368;28;20299;-82
2022/09/08 05:34:13;;;;;;;2.00;1.80;;;15.90;99.90;;;;;;5083651;28;20214;-83
2022/09/08 05:36:41;;;;;;;3.73;1.93;;;16.00;99.90;;;;;;5070552;28;20235;-84
2022/09/08 05:39:11;;;;;;;5.67;2.00;;;16.00;99.90;;;;;;5067031;28;20665;-83
2022/09/08 05:41:39;;;;;;;1.70;1.60;;;16.00;99.90;;;;;;5076466;28;20704;-85
2022/09/08 05:44:10;;;;;;;2.70;2.03;;;16.00;99.90;;;;;;5078003;28;20212;-80
2022/09/08 05:46:38;;;;;;;3.23;1.70;;;16.30;99.90;;;;;;5067797;28;20200;-84
2022/09/08 05:49:06;;;;;;;1.67;1.53;;;16.60;99.90;;;;;;5072795;28;20208;-83
2022/09/08 05:51:38;;;;;;;2.50;1.83;;;16.90;99.90;;;;;;5070543;28;20204;-82
2022/09/08 05:54:06;;;;;;;3.57;1.70;;;17.00;99.90;;;;;;5075015;28;20601;-83
2022/09/08 05:56:35;;;;;;;2.97;1.83;;;17.10;99.90;;;;;;5081769;28;20207;-83
2022/09/08 05:59:03;;;;;;;2.87;1.80;;;17.20;99.90;;;;;;5078913;28;20599;-84
2022/09/08 06:01:33;;;;;;;2.60;1.57;;;17.30;99.90;;;;;;5077157;28;20230;-83
2022/09/08 06:04:02;;;;;;;2.50;1.60;;;17.20;99.90;;;;;;5080020;28;20208;-83
2022/09/08 06:06:31;;;;;;;1.70;1.60;;;17.10;99.90;;;;;;5066057;28;20204;-83
2022/09/08 06:09:00;;;;;;;1.80;1.70;;;17.20;99.90;;;;;;5079940;28;20218;-82
2022/09/08 06:11:29;;;;;;;4.10;1.67;;;17.20;99.90;;;;;;5086539;28;20215;-82
2022/09/08 06:13:59;;;;;;;3.10;1.40;;;17.20;99.90;;;;;;5086858;28;20214;-82
2022/09/08 06:16:27;;;;;;;3.10;1.50;;;17.30;99.90;;;;;;5082510;28;20215;-83
2022/09/08 06:18:58;;;;;;;3.07;1.50;;;17.30;99.90;;;;;;5076840;28;20302;-82
2022/09/08 06:21:29;;;;;;;4.13;1.60;;;17.40;99.90;;;;;;5082987;28;20224;-82
2022/09/08 06:23:59;;;;;;;1.43;1.10;;;17.10;99.90;;;;;;5079501;28;20620;-83
2022/09/08 06:26:44;;;;;;;1.50;1.30;;;16.90;99.90;;;;;;5079202;28;20264;-83
2022/09/08 06:29:19;;;;;;;2.00;1.20;;;16.80;99.90;;;;;;5080497;28;20262;-83
2022/09/08 06:31:52;;;;;;;1.60;1.10;;;16.70;99.90;;;;;;5066161;28;20950;-83
2022/09/08 06:34:24;;;;;;;1.57;1.30;;;16.60;99.90;;;;;;5078428;28;20203;-81
2022/09/08 06:36:56;;;;;;;1.00;0.90;;;16.60;99.90;;;;;;5080120;28;20207;-83
2022/09/08 06:39:28;;;;;;;1.30;1.00;;;16.60;99.90;;;;;;5071310;28;20573;-82
2022/09/08 06:42:03;;;;;;;1.20;1.10;;;16.60;99.90;;;;;;5071600;28;20204;-83
2022/09/08 06:44:38;;;;;;;2.73;1.30;;;16.60;99.90;;;;;;5076611;28;20200;-84
2022/09/08 06:47:14;;;;;;;3.33;1.17;;;16.60;99.90;;;;;;5072021;28;20204;-82
2022/09/08 06:49:47;;;;;;;4.37;1.20;;;16.60;99.90;;;;;;5078558;28;20203;-83
2022/09/08 06:52:23;;;;;;;0.83;0.83;;;16.70;99.90;;;;;;5082710;28;20200;-83
2022/09/08 06:55:08;;;;;;;2.27;1.10;;;16.70;99.90;;;;;;5075989;28;20212;-83
2022/09/08 06:57:48;;;;;;;3.10;1.53;;;16.70;99.90;;;;;;5068035;28;20584;-81
2022/09/08 07:00:42;;;;;;;1.97;0.90;;;16.80;99.90;;;;;;5077316;28;20234;-82
2022/09/08 07:03:32;;;;;;;0.63;0.63;;;16.80;99.90;;;;;;5074466;28;20215;-83
2022/09/08 07:06:06;;;;;;;0.43;0.43;;;16.80;99.90;;;;;;5072535;28;20204;-82
2022/09/08 07:09:02;;;;;;;1.70;0.83;;;16.80;99.90;;;;;;5083596;28;20231;-83
2022/09/08 07:11:46;;;;;;;0.63;0.63;;;16.80;99.90;;;;;;5070940;28;20208;-82
2022/09/08 07:14:50;;;;;;;3.70;0.80;;;16.70;99.90;;;;;;5068432;28;20195;-82
2022/09/08 07:17:26;;;;;;;1.40;0.67;;;16.70;99.90;;;;;;5061207;28;20576;-82
2022/09/08 07:19:55;;;;;;;0.67;0.50;;;16.80;99.90;;;;;;5063013;28;20263;-82
2022/09/08 07:22:37;;;;;;;0.83;0.60;;;16.80;99.90;;;;;;5067203;28;20227;-83
2022/09/08 07:25:20;;;;;;;0.67;0.40;;;16.70;99.90;;;;;;5071450;28;20682;-84
2022/09/08 07:27:53;;;;;;;0.83;0.60;;;16.70;99.90;;;;;;5060195;28;20227;-74
2022/09/08 07:30:22;;;;;;;0.60;0.60;;;16.60;99.90;;;;;;5064464;28;20209;-74
2022/09/08 07:32:58;;;;;;;1.00;0.80;;;16.60;99.90;;;;;;5063512;28;20207;-75
2022/09/08 07:36:14;;;;;;;1.23;0.50;;;16.60;99.90;;;;;;5067758;28;20211;-74
2022/09/08 07:38:46;;;;;;;1.77;0.70;;;16.50;99.90;;;;;;5064998;28;20694;-75
2022/09/08 07:41:22;;;;;;;2.30;0.90;;;16.40;99.90;;;;;;5064008;28;20694;-77
2022/09/08 07:43:54;;;;;;;1.23;0.67;;;16.40;99.90;;;;;;5067673;28;20227;-80
2022/09/08 07:46:47;;;;;;;1.13;0.90;;;16.30;99.90;;;;;;5073066;28;20208;-77
2022/09/08 07:49:24;;;;;;;0.77;0.60;;;16.30;99.90;;;;;;5069124;28;20211;-77
2022/09/08 07:52:01;;;;;;;0.93;0.80;;;16.10;99.90;;;;;;5060311;28;20205;-79
2022/09/08 07:54:52;;;;;;;1.80;0.70;;;16.00;99.90;;;;;;5065234;28;20705;-79
2022/09/08 07:57:30;;;;;;;0.83;0.77;;;15.90;99.90;;;;;;5074688;28;20213;-79
2022/09/08 08:00:12;;;;;;;1.53;0.90;;;15.90;99.90;;;;;;5067057;28;20223;-79
2022/09/08 08:03:08;;;;;;;2.00;0.87;;;15.90;99.90;;;;;;5066631;28;20232;-78
2022/09/08 08:05:45;;;;;;;1.33;0.90;;;15.80;99.90;;;;;;5067028;28;20257;-77
2022/09/08 08:08:41;;;;;;;0.97;0.83;;;15.80;99.90;;;;;;5067702;28;20215;-79
2022/09/08 08:11:35;;;;;;;2.80;1.17;;;15.70;99.90;;;;;;5075794;28;20210;-77
2022/09/08 08:14:17;;;;;;;2.83;1.30;;;15.70;99.90;;;;;;5066935;28;20231;-77
2022/09/08 08:16:54;;;;;;;1.40;1.03;;;15.70;99.90;;;;;;5070858;28;20592;-79
2022/09/08 08:19:47;;;;;;;3.50;1.03;;;15.50;99.90;;;;;;5064927;28;20242;-79
2022/09/08 08:22:28;;;;;;;1.20;1.10;;;15.60;99.90;;;;;;5068705;28;20232;-78
2022/09/08 08:25:02;;;;;;;1.10;1.00;;;15.50;99.90;;;;;;5072308;28;20211;-77
2022/09/08 08:27:36;;;;;;;1.80;0.90;;;15.50;99.90;;;;;;5076485;28;20286;-78
2022/09/08 08:30:17;;;;;;;3.03;1.50;;;15.40;99.90;;;;;;5074506;28;20199;-77
2022/09/08 08:32:53;;;;;;;2.23;1.20;;;15.40;99.90;;;;;;5073011;28;20533;-77
2022/09/08 08:35:28;;;;;;;3.87;1.33;;;15.40;99.90;;;;;;5066659;28;20227;-75
2022/09/08 08:37:58;;;;;;;1.57;1.10;;;15.40;99.90;;;;;;5073528;28;20562;-76
2022/09/08 08:40:50;;;;;;;2.60;1.30;;;15.30;99.90;;;;;;5072149;28;20203;-75
2022/09/08 08:43:39;;;;;;;2.20;1.23;;;15.40;99.90;;;;;;5074214;28;20212;-77
2022/09/08 08:46:31;;;;;;;2.07;1.20;;;15.50;99.90;;;;;;5066807;28;20329;-78
2022/09/08 08:49:17;;;;;;;1.40;1.10;;;15.50;99.90;;;;;;5067340;28;20242;-80
2022/09/08 08:52:03;;;;;;;2.50;1.20;;;15.50;99.90;;;;;;5062017;28;20219;-77
2022/09/08 08:54:55;;;;;;;1.90;0.90;;;15.60;99.90;;;;;;5072179;28;20661;-76
2022/09/08 08:57:45;;;;;;;1.60;1.10;;;15.60;99.90;;;;;;5070580;28;20219;-79
2022/09/08 09:00:19;;;;;;;4.17;1.50;;;15.70;99.90;;;;;;5067009;28;20211;-79
2022/09/08 09:03:24;;;;;;;3.20;1.50;;;15.80;99.90;;;;;;5070899;28;20211;-77
2022/09/08 09:06:14;;;;;;;1.17;1.00;;;15.90;99.90;;;;;;5064293;28;20679;-76
2022/09/08 09:09:34;;;;;;;2.70;1.10;;;16.00;99.90;;;;;;5073392;28;20210;-77
2022/09/08 09:12:16;;;;;;;3.20;1.30;;;16.00;99.90;;;;;;5046329;28;20696;-77
2022/09/08 09:15:29;;;;;;;2.10;1.10;;;16.00;99.90;;;;;;5069119;28;20215;-77
2022/09/08 09:18:55;;;;;;;1.90;1.23;;;16.00;99.90;;;;;;5052339;28;20216;-77
2022/09/08 09:21:35;;;;;;;1.47;1.00;;;16.30;99.90;;;;;;5069613;28;20618;-77
2022/09/08 09:24:15;;;;;;;1.03;0.90;;;16.30;99.90;;;;;;5075481;28;20215;-77
2022/09/08 09:26:48;;;;;;;2.40;1.30;;;16.30;99.90;;;;;;5065802;28;20685;-77
2022/09/08 09:29:22;;;;;;;1.67;1.17;;;16.30;99.90;;;;;;5068024;28;20211;-78
2022/09/08 09:32:39;;;;;;;2.67;1.17;;;16.30;99.90;;;;;;5069518;28;20285;-79
2022/09/08 09:35:39;;;;;;;1.43;0.90;;;16.50;99.90;;;;;;5068417;28;20207;-77
2022/09/08 09:38:41;;;;;;;3.90;1.27;;;16.60;99.90;;;;;;5069854;28;20210;-79
2022/09/08 09:41:43;;;;;;;1.00;0.90;;;16.80;99.90;;;;;;5061193;28;20207;-77
2022/09/08 09:44:30;;;;;;;1.30;0.90;;;16.90;99.90;;;;;;5064667;28;20708;-79
2022/09/08 09:47:20;;;;;;;0.80;0.80;;;17.10;99.90;;;;;;5066081;28;20677;-78
2022/09/08 09:50:24;;;;;;;0.80;0.80;;;17.00;99.90;;;;;;5072663;28;20256;-78
2022/09/08 09:53:01;;;;;;;3.53;1.33;;;17.10;99.90;;;;;;5040741;28;20199;-77
2022/09/08 09:56:13;;;;;;;1.53;0.83;;;17.20;99.90;;;;;;5071592;28;20216;-77
2022/09/08 09:59:12;;;;;;;2.70;1.00;;;17.90;99.90;;;;;;5072284;28;20228;-78
2022/09/08 10:01:57;;;;;;;0.80;0.73;;;19.20;99.90;;;;;;5064408;28;20203;-76
2022/09/08 10:05:09;;;;;;;1.77;0.70;;;20.60;99.90;;;;;;5072868;28;20227;-76
2022/09/08 10:08:12;;;;;;;0.80;0.70;;;21.70;99.90;;;;;;5072419;28;20219;-77
2022/09/08 10:11:02;;;;;;;0.97;0.70;;;21.90;99.90;;;;;;5072665;28;20191;-79
2022/09/08 10:14:09;;;;;;;0.70;0.70;;;22.00;99.90;;;;;;5071861;28;20203;-76
2022/09/08 10:17:08;;;;;;;2.83;0.80;;;21.60;99.90;;;;;;5061556;28;20700;-77
2022/09/08 10:20:15;;;;;;;0.90;0.70;;;21.60;99.90;;;;;;5069790;28;20301;-77
2022/09/08 10:23:02;;;;;;;0.63;0.63;;;21.10;99.90;;;;;;5036382;28;20234;-77
2022/09/08 10:26:08;;;;;;;0.87;0.57;;;20.80;99.90;;;;;;5077884;28;20199;-78
2022/09/08 10:29:02;;;;;;;0.90;0.80;;;20.60;99.90;;;;;;5066654;28;20205;-78
2022/09/08 10:32:07;;;;;;;2.93;0.70;;;20.20;99.90;;;;;;5075208;28;20235;-76
2022/09/08 10:35:14;;;;;;;1.53;0.73;;;19.90;99.90;;;;;;5072235;28;20294;-76
2022/09/08 10:38:20;;;;;;;0.60;0.60;;;19.70;99.90;;;;;;5071238;28;20751;-76
2022/09/08 10:41:11;;;;;;;0.60;0.60;;;19.10;99.90;;;;;;5075588;28;20200;-79
2022/09/08 10:44:02;;;;;;;0.83;0.70;;;19.10;99.90;;;;;;5076646;28;20597;-76
2022/09/08 10:47:03;;;;;;;1.60;1.00;;;18.90;99.90;;;;;;5069713;28;20212;-76
2022/09/08 10:50:06;;;;;;;1.63;0.80;;;18.80;99.90;;;;;;5068759;28;20210;-77
2022/09/08 10:52:51;;;;;;;1.07;0.70;;;18.70;99.90;;;;;;5069719;28;20637;-77
2022/09/08 10:55:58;;;;;;;2.93;0.70;;;18.80;99.90;;;;;;5068622;28;20199;-78
2022/09/08 10:59:18;;;;;;;3.33;2.20;;;19.10;99.90;;;;;;5073310;28;20250;-77
2022/09/08 11:02:16;;;;;;;3.80;0.80;;;19.40;99.90;;;;;;5029318;28;20219;-77
2022/09/08 11:05:27;;;;;;;2.47;0.80;;;19.60;99.90;;;;;;5034213;28;20277;-77
2022/09/08 11:08:36;;;;;;;1.13;0.67;;;20.00;99.90;;;;;;5073106;28;20301;-78
2022/09/08 11:11:33;;;;;;;0.83;0.50;;;20.00;99.90;;;;;;5069870;28;20222;-78
2022/09/08 11:14:06;;;;;;;0.97;0.70;;;20.10;99.90;;;;;;5066820;28;20216;-77
2022/09/08 11:17:09;;;;;;;1.47;1.20;;;20.40;99.90;;;;;;5067512;28;20295;-77
2022/09/08 11:19:42;;;;;;;2.03;0.90;;;20.30;99.90;;;;;;5074337;28;20225;-77
2022/09/08 11:22:38;;;;;;;2.07;0.77;;;20.30;99.90;;;;;;5075043;28;20563;-77
2022/09/08 11:25:18;;;;;;;2.90;0.60;;;20.30;99.90;;;;;;5070550;28;20207;-79
2022/09/08 11:27:56;;;;;;;0.77;0.50;;;20.20;99.90;;;;;;5071103;28;20224;-78
2022/09/08 11:30:33;;;;;;;1.40;0.60;;;20.30;99.90;;;;;;5073372;28;20208;-76
2022/09/08 11:33:11;;;;;;;1.70;0.80;;;20.20;99.90;;;;;;5074416;28;20227;-77
2022/09/08 11:35:53;;;;;;;4.57;0.70;;;20.10;99.90;;;;;;5075100;28;20211;-77
2022/09/08 11:38:55;;;;;;;3.30;2.00;;;20.00;99.90;;;;;;5077778;28;20199;-80
2022/09/08 11:41:55;;;;;;;3.87;0.80;;;19.90;99.90;;;;;;5097105;28;20221;-77
2022/09/08 11:44:41;;;;;;;3.70;1.00;;;19.80;99.90;;;;;;5104932;28;20282;-79
2022/09/08 11:47:37;;;;;;;1.47;0.80;;;19.70;99.90;;;;;;5080674;28;20214;-78
2022/09/08 11:50:35;;;;;;;1.17;0.67;;;19.60;99.90;;;;;;5077485;28;20723;-77
2022/09/08 11:53:49;;;;;;;1.13;1.00;;;19.50;99.90;;;;;;5095435;28;20290;-77
2022/09/08 11:57:02;;;;;;;1.30;0.80;;;19.30;99.90;;;;;;5094367;28;20237;-78
2022/09/08 11:59:56;;;;;;;0.93;0.70;;;19.20;99.90;;;;;;5094760;28;20214;-77
2022/09/08 12:02:43;;;;;;;1.73;0.83;;;19.10;99.90;;;;;;5092930;28;20268;-77
2022/09/08 12:05:25;;;;;;;0.73;0.60;;;19.00;99.90;;;;;;5094270;28;20231;-76
2022/09/08 12:08:36;;;;;;;2.83;0.77;;;19.00;99.90;;;;;;5088042;28;20210;-77
2022/09/08 12:11:17;;;;;;;1.47;0.60;;;19.20;99.90;;;;;;5095705;28;20222;-78
2022/09/08 12:13:53;;;;;;;1.47;0.80;;;19.00;99.90;;;;;;5086309;28;20555;-79
2022/09/08 12:16:42;;;;;;;0.73;0.70;;;19.00;99.90;;;;;;5074440;28;20211;-77
2022/09/08 12:19:24;;;;;;;0.97;0.80;;;19.00;99.90;;;;;;5074365;28;20218;-77
2022/09/08 12:22:14;;;;;;;1.17;0.80;;;19.10;99.90;;;;;;5093452;28;20202;-79
2022/09/08 12:25:00;;;;;;;1.00;0.83;;;19.00;99.90;;;;;;5073468;28;20307;-77
2022/09/08 12:28:10;;;;;;;1.67;0.67;;;19.00;99.90;;;;;;5074286;28;20207;-77
2022/09/08 12:30:53;;;;;;;1.90;0.90;;;19.00;99.90;;;;;;5080178;28;20700;-77
2022/09/08 12:34:09;;;;;;;1.27;0.80;;;18.90;99.90;;;;;;5094043;28;20202;-77
2022/09/08 12:36:44;;;;;;;1.30;0.80;;;18.90;99.90;;;;;;5044379;28;20727;-78
2022/09/08 12:39:33;;;;;;;1.13;0.70;;;18.80;99.90;;;;;;5093363;28;20661;-76
2022/09/08 12:42:15;;;;;;;1.87;0.90;;;18.70;99.90;;;;;;5092896;28;20211;-79
2022/09/08 12:44:56;;;;;;;0.80;0.80;;;18.60;99.90;;;;;;5093013;28;20673;-77
2022/09/08 12:47:36;;;;;;;3.03;0.90;;;18.60;99.90;;;;;;5093824;28;20273;-77
2022/09/08 12:50:34;;;;;;;1.70;0.80;;;18.60;99.90;;;;;;5093227;28;20211;-77
2022/09/08 12:53:29;;;;;;;0.60;0.60;;;18.80;99.90;;;;;;5063280;28;20232;-78
2022/09/08 12:56:03;;;;;;;1.00;0.80;;;19.00;99.90;;;;;;5099712;28;20237;-78
2022/09/08 12:58:41;;;;;;;1.80;0.97;;;19.30;99.90;;;;;;5092353;28;20198;-76
2022/09/08 13:01:19;;;;;;;1.93;0.80;;;19.50;99.90;;;;;;5098246;28;20206;-75
2022/09/08 13:03:48;;;;;;;1.20;0.80;;;19.70;99.90;;;;;;5091934;28;20236;-77
2022/09/08 13:06:46;;;;;;;0.77;0.77;;;20.00;99.90;;;;;;5100141;28;20219;-77
2022/09/08 13:09:23;;;;;;;2.53;1.00;;;20.60;99.90;;;;;;5075617;28;20211;-76
2022/09/08 13:12:15;;;;;;;1.43;0.80;;;21.00;99.90;;;;;;5093084;28;20210;-75
2022/09/08 13:15:00;;;;;;;1.13;0.70;;;21.60;99.90;;;;;;5092867;28;20195;-78
2022/09/08 13:17:39;;;;;;;1.73;0.90;;;21.90;99.90;;;;;;5092406;28;20585;-76
2022/09/08 13:20:25;;;;;;;2.40;1.13;;;22.00;99.90;;;;;;5091326;28;20199;-77
2022/09/08 13:23:05;;;;;;;1.33;0.90;;;21.90;99.90;;;;;;5092930;28;20572;-77
2022/09/08 13:25:42;;;;;;;4.47;1.10;;;21.80;99.90;;;;;;5092784;28;20213;-78
2022/09/08 13:28:37;;;;;;;1.10;0.80;;;21.90;99.90;;;;;;5075102;28;20195;-76
2022/09/08 13:31:22;;;;;;;3.33;1.03;;;22.20;99.90;;;;;;5091656;28;20251;-78
2022/09/08 13:34:06;;;;;;;1.10;0.90;;;22.60;99.90;;;;;;5092466;28;20285;-78
2022/09/08 13:36:46;;;;;;;2.87;1.10;;;22.80;99.90;;;;;;5105708;28;20565;-78
2022/09/08 13:39:33;;;;;;;2.23;1.00;;;22.60;99.90;;;;;;5112823;28;20201;-76
2022/09/08 13:42:16;;;;;;;0.73;0.73;;;22.70;99.90;;;;;;5110477;28;20241;-76
2022/09/08 13:45:11;;;;;;;2.57;0.80;;;22.40;99.90;;;;;;5091820;28;20248;-79
2022/09/08 13:48:03;;;;;;;1.90;0.80;;;22.30;99.90;;;;;;5092576;28;20211;-77
2022/09/08 13:50:50;;;;;;;1.90;0.83;;;22.50;99.90;;;;;;5054587;28;20210;-78
2022/09/08 13:53:38;;;;;;;1.23;0.70;;;22.50;99.90;;;;;;5091157;28;20207;-75
2022/09/08 13:56:21;;;;;;;1.17;0.80;;;22.20;99.90;;;;;;5092113;28;20248;-76
2022/09/08 13:58:50;;;;;;;1.70;0.83;;;21.80;99.90;;;;;;5092206;28;20640;-78